WSAP/QPG METAR and TAF weather

Enter ICAO airport designator
Station Type Date Time Source
WSAP METAR 2019/02/16 18:00 UTC NOAA

WSAP 161800Z 03005KT 9999 FEW018 BKN150 28/24 Q1013


Station Type Date Time Source
WSAP Decoded METAR 2019/02/16 18:00 UTC NOAA

Singapore / Paya Lebar, Singapore (WSAP) 01-22N 103-55E 32M
Feb 16, 2019 - 01:00 PM EST / 2019.02.16 1800 UTC
Wind: from the NNE (030 degrees) at 6 MPH (5 KT):0
Visibility: greater than 7 mile(s):0
Sky conditions: mostly cloudy
Temperature: 82 F (28 C)
Dew Point: 75 F (24 C)
Relative Humidity: 78%
Pressure (altimeter): 29.91 in. Hg (1013 hPa)
ob: WSAP 161800Z 03005KT 9999 FEW018 BKN150 28/24 Q1013
cycle: 18

Station Type Date Time Source
WSAP TAF 2019/02/16 18:12 UTC NOAA

TAF WSAP 161700Z 1618/1800 02008KT 9999 SCT020
TEMPO 1708/1711 2000 TSRA FEW012CB BKN015


Example: see airport list